Date,TemperatureHighF,TemperatureAvgF,TemperatureLowF,DewpointHighF,DewpointAvgF,DewpointLowF,HumidityHigh,HumidityAvg,HumidityLow,PressureMaxIn,PressureMinIn,WindSpeedMaxMPH,WindSpeedAvgMPH,GustSpeedMaxMPH,PrecipitationSumIn
2013-1-1,33,31,24,32,29,21,97,91,84,30.08,29.97,13,1,13,0.03
2013-1-2,28,22,16,21,16,13,91,78,60,30.26,30.06,13,2,13,0.00
2013-1-3,35,22,7,24,17,5,93,80,62,30.28,30.17,23,3,24,0.17
2013-1-4,34,30,28,25,23,21,79,74,63,30.28,30.18,23,6,24,0.00
2013-1-5,38,30,20,27,24,17,92,76,62,30.41,30.17,14,1,14,0.13
2013-1-6,40,36,33,33,30,26,91,77,67,30.22,30.01,12,1,13,0.08
2013-1-7,36,31,20,32,26,18,93,83,69,30.47,30.22,14,2,14,0.02
2013-1-8,47,29,15,33,24,13,97,83,57,30.41,30.27,10,0,10,0.00
2013-1-9,47,33,22,43,31,20,98,92,81,30.35,30.24,15,1,15,0.04
2013-1-10,43,34,24,35,30,23,97,86,70,30.61,30.29,2,0,6,0.01
2013-1-11,60,51,34,57,49,31,98,92,82,30.28,29.96,11,0,11,0.11
2013-1-12,67,55,44,59,52,44,100,89,69,30.07,29.91,13,0,14,0.00
2013-1-13,68,61,52,58,55,50,97,80,68,29.93,29.82,20,1,20,0.19
2013-1-14,58,41,33,57,36,27,97,81,68,30.35,29.84,24,3,24,0.04
2013-1-15,34,32,28,31,27,24,95,82,76,30.38,30.07,11,2,11,0.13
2013-1-16,36,34,32,35,32,31,98,95,88,30.08,29.90,13,1,13,0.39
2013-1-17,36,33,30,31,30,27,92,87,80,30.19,30.03,14,2,14,0.00
2013-1-18,34,29,21,30,18,13,92,65,49,30.52,30.18,21,4,22,0.00
2013-1-19,54,44,32,26,22,15,54,40,30,30.29,29.85,23,3,27,0.00
2013-1-20,48,38,25,33,22,14,69,54,41,30.13,29.80,30,8,31,0.00
2013-1-21,29,24,13,22,16,8,87,71,59,30.11,29.92,28,6,31,0.00
2013-1-22,16,10,5,10,2,-1,92,69,56,30.35,30.09,21,6,23,0.00
2013-1-23,18,11,1,13,4,-2,90,74,55,30.38,30.11,15,2,16,0.00
2013-1-24,24,16,7,15,10,3,90,77,55,30.57,30.09,15,2,16,0.00
2013-1-25,21,16,8,18,12,5,94,85,68,30.57,30.06,11,0,11,0.00
2013-1-26,29,24,19,24,20,13,92,84,69,30.47,30.14,15,2,15,0.03
2013-1-27,33,22,6,24,16,4,92,77,58,30.57,30.34,6,0,6,0.12
2013-1-28,52,42,30,51,40,23,97,93,73,30.34,30.04,12,2,13,0.36
2013-1-29,68,58,51,58,53,50,99,84,64,30.06,29.75,14,1,14,0.02
2013-1-30,73,59,48,58,53,44,96,81,57,29.76,29.21,45,3,46,1.09
2013-1-31,48,30,25,45,23,13,93,76,59,29.87,29.21,34,10,34,0.05
2013-2-1,25,16,10,22,10,4,90,75,64,30.39,29.83,25,7,25,0.00
2013-2-2,25,18,6,23,13,3,93,83,67,30.38,30.01,16,1,16,0.00
2013-2-3,27,24,19,25,21,13,94,89,76,30.08,29.84,25,3,25,0.05
2013-2-4,29,24,18,28,19,13,96,84,69,30.12,29.88,18,2,21,0.00
2013-2-5,35,31,29,32,30,28,97,94,78,29.96,29.83,16,1,17,0.00
2013-2-6,33,28,15,29,24,13,97,85,67,30.35,29.96,14,2,16,0.01
2013-2-7,44,27,12,32,22,10,95,84,63,30.33,30.00,7,0,7,0.04
2013-2-8,39,33,26,38,29,22,95,86,79,30.18,29.81,25,8,27,0.08
2013-2-9,34,27,17,22,20,14,91,75,58,30.41,30.18,20,4,20,0.00
2013-2-10,53,32,12,34,21,10,94,68,36,30.38,29.98,10,0,11,0.02
2013-2-11,63,49,40,50,37,28,94,67,32,29.99,29.66,33,6,33,0.01
2013-2-12,47,39,26,31,27,22,88,64,46,30.07,29.88,27,6,28,0.00
2013-2-13,26,24,23,23,22,21,93,91,88,29.93,29.86,1,0,1,0.00
2013-2-14,44,36,28,36,31,26,92,81,65,29.98,29.88,9,1,25,0.21
2013-2-15,40,34,28,35,31,26,99,87,71,30.06,29.92,6,2,14,0.01
2013-2-16,31,24,20,28,18,14,91,76,60,30.05,29.94,18,3,18,0.02
2013-2-17,24,20,16,18,13,7,87,75,57,30.31,29.94,23,8,26,0.00
2013-2-18,48,30,8,32,18,6,93,64,41,30.35,29.89,9,1,12,0.00
2013-2-19,48,38,27,40,31,17,92,77,46,29.96,29.68,31,7,31,0.14
2013-2-20,26,21,20,21,15,13,87,76,69,30.26,29.95,24,7,29,0.00
2013-2-21,28,23,20,19,16,14,92,75,66,30.37,30.23,14,3,14,0.00
2013-2-22,45,34,22,39,29,16,94,82,68,30.30,29.98,11,1,11,0.01
2013-2-23,49,38,28,41,34,27,96,87,66,30.00,29.83,13,1,13,0.00
2013-2-24,32,28,24,29,24,20,96,86,75,30.17,29.85,9,1,21,0.01
2013-2-25,43,33,23,28,24,20,91,72,51,30.25,30.05,12,1,12,0.00
2013-2-26,42,34,23,37,30,20,94,84,63,30.07,29.57,22,2,22,0.63
2013-2-27,43,40,34,40,37,32,95,89,77,29.68,29.55,20,2,20,0.19
2013-2-28,35,34,32,33,31,30,94,91,85,29.82,29.63,15,3,17,0.06
2013-3-1,34,31,28,31,27,24,92,84,72,29.98,29.82,16,4,18,0.01
2013-3-2,30,27,26,25,23,21,92,84,73,29.98,29.92,14,3,14,0.00
2013-3-3,29,26,23,24,21,19,93,82,69,30.04,29.94,18,5,18,0.01
2013-3-4,38,28,23,23,19,16,88,70,49,30.16,30.04,15,4,19,0.00
2013-3-5,48,34,20,31,23,18,94,67,33,30.11,29.65,20,2,21,0.00
2013-3-6,41,35,32,34,31,30,96,88,70,30.12,29.64,13,1,13,0.44
2013-3-7,39,35,33,34,31,30,92,86,74,30.29,30.10,11,3,16,0.00
2013-3-8,37,33,25,31,27,22,93,80,71,30.42,30.28,20,3,20,0.01
2013-3-9,57,37,20,36,28,19,96,73,38,30.42,30.18,7,0,8,0.01
2013-3-10,72,52,30,39,33,27,91,56,25,30.18,29.97,16,1,18,0.00
2013-3-11,65,58,48,50,38,32,88,50,30,29.99,29.66,19,2,20,0.08
2013-3-12,54,40,36,51,35,29,91,81,72,30.00,29.71,19,5,21,0.04
2013-3-13,37,32,28,33,27,21,96,83,59,30.16,29.93,31,5,31,0.05
2013-3-14,40,31,25,23,21,18,83,67,46,30.26,30.14,19,6,24,0.00
2013-3-15,52,38,21,36,28,18,93,69,51,30.17,29.82,21,3,21,0.00
2013-3-16,48,42,36,45,40,32,97,91,71,29.95,29.59,14,2,16,0.03
2013-3-17,38,34,30,32,26,24,88,74,60,30.18,29.95,11,2,11,0.00
2013-3-18,46,38,33,41,34,25,95,85,71,30.14,29.69,14,2,14,0.53
2013-3-19,47,41,32,46,29,15,96,66,30,29.98,29.68,38,10,38,0.02
2013-3-20,41,34,27,23,19,16,66,54,42,29.99,29.80,23,6,27,0.00
2013-3-21,29,25,19,21,15,10,88,66,50,29.96,29.87,25,7,25,0.00
2013-3-22,40,30,24,23,20,18,81,66,48,30.04,29.94,26,5,26,0.00
2013-3-23,49,33,17,28,22,15,95,66,36,30.06,29.97,19,2,19,0.00
2013-3-24,43,34,26,31,25,21,94,73,46,29.99,29.50,13,2,16,0.00
2013-3-25,38,34,31,35,32,30,100,95,89,29.74,29.43,11,1,12,0.47
2013-3-26,42,36,33,34,32,30,96,85,69,30.09,29.74,16,4,16,0.10
2013-3-27,43,37,32,33,29,26,92,74,53,30.17,30.07,25,7,25,0.00
2013-3-28,45,39,35,31,30,28,80,70,54,30.26,30.14,19,6,19,0.00
2013-3-29,53,42,33,35,29,25,86,62,37,30.27,30.15,18,3,19,0.00
2013-3-30,56,41,23,32,25,21,94,60,27,30.26,30.02,14,1,14,0.00
2013-3-31,50,43,33,48,39,25,95,85,63,30.02,29.71,11,1,13,0.10
2013-4-1,47,42,29,44,31,16,92,68,39,30.02,29.71,24,6,24,0.02
2013-4-2,42,33,24,20,17,14,73,54,36,30.21,30.02,22,5,22,0.00
2013-4-3,43,31,20,23,17,11,88,58,32,30.41,30.20,25,4,28,0.00
2013-4-4,57,36,16,26,18,12,90,55,23,30.41,29.98,9,1,9,0.00
2013-4-5,57,43,26,35,27,22,90,56,33,30.16,29.93,22,3,22,0.00
2013-4-6,62,43,21,27,20,13,92,48,16,30.28,30.00,13,1,13,0.00
2013-4-7,73,62,52,53,41,25,75,48,34,30.01,29.85,24,4,24,0.00
2013-4-8,75,62,44,54,49,43,97,65,40,30.01,29.86,21,2,21,0.00
2013-4-9,82,70,56,61,55,50,84,60,42,30.06,29.86,18,2,18,0.00
2013-4-10,84,74,60,63,58,52,94,59,43,29.91,29.73,25,4,33,0.11
2013-4-11,77,66,51,62,58,50,99,78,55,29.83,29.52,19,1,19,0.01
2013-4-12,72,59,46,60,51,37,96,76,50,29.82,29.45,19,5,28,0.44
2013-4-13,58,47,36,40,35,31,87,65,44,30.01,29.82,27,5,27,0.00
2013-4-14,63,48,29,41,36,28,96,65,40,30.16,29.98,9,1,10,0.00
2013-4-15,66,61,50,52,47,39,76,62,52,30.08,29.95,18,2,18,0.00
2013-4-16,81,66,51,63,56,47,96,72,51,30.16,29.98,20,2,22,0.33
2013-4-17,66,59,54,59,56,53,98,91,75,30.20,30.06,8,1,8,0.01
2013-4-18,85,72,52,66,59,51,98,67,41,30.07,29.73,20,3,20,0.00
2013-4-19,72,61,45,62,51,34,90,71,57,29.84,29.43,24,5,25,0.10
2013-4-20,45,40,37,35,32,30,83,73,65,30.09,29.83,22,7,23,0.01
2013-4-21,55,44,25,32,26,22,96,53,30,30.59,30.39,14,2,14,0.00
2013-4-22,63,50,37,37,30,21,77,47,23,30.45,30.25,16,2,16,0.00
2013-4-23,72,54,31,45,37,29,94,56,30,30.26,29.94,9,1,9,0.00
2013-4-24,73,62,55,57,48,40,93,61,52,29.94,29.70,38,2,38,0.23
2013-4-25,58,46,32,39,34,30,97,68,38,30.34,30.14,9,3,21,0.02
2013-4-26,61,49,35,40,36,33,97,66,37,30.46,30.34,3,1,11,0.00
2013-4-27,75,54,31,45,37,30,98,61,25,30.38,30.13,3,1,11,0.00
2013-4-28,62,57,50,55,50,42,93,79,49,30.13,29.93,15,2,15,0.17
2013-4-29,66,60,56,59,55,49,95,85,73,29.99,29.91,11,1,11,0.31
2013-4-30,74,60,46,59,53,46,99,80,53,30.15,29.99,16,2,18,0.00
2013-5-1,76,62,45,57,49,39,98,67,33,30.27,30.15,12,2,13,0.00
2013-5-2,76,55,40,52,42,37,95,66,28,30.32,30.20,11,1,11,0.00
2013-5-3,74,60,41,49,43,38,96,57,32,30.21,30.10,7,3,21,0.00
2013-5-4,70,58,42,46,40,29,78,51,33,30.17,30.04,7,3,21,0.00
2013-5-5,72,59,41,44,36,24,91,48,18,30.11,29.97,8,3,21,0.00
2013-5-6,69,58,42,56,51,38,91,77,57,30.04,29.95,10,2,20,0.02
2013-5-7,64,60,56,60,57,53,95,89,85,29.98,29.89,10,2,11,0.24
2013-5-8,73,61,50,58,53,49,99,77,45,29.95,29.84,12,1,12,0.38
2013-5-9,77,63,52,62,55,50,98,79,40,29.97,29.88,17,2,17,0.02
2013-5-10,77,62,53,66,58,52,98,90,63,29.97,29.78,29,1,29,0.53
2013-5-11,61,59,51,60,56,48,97,91,80,29.82,29.74,14,2,14,0.17
2013-5-12,54,48,41,50,37,30,92,67,44,30.06,29.80,23,5,26,0.01
2013-5-13,53,44,31,39,32,28,96,67,44,30.14,30.05,20,3,21,0.00
2013-5-14,63,53,28,47,41,27,98,65,45,30.20,29.89,14,1,14,0.01
2013-5-15,86,71,48,66,58,43,88,65,47,29.89,29.67,28,4,28,0.00
2013-5-16,77,68,57,67,61,55,99,80,55,29.94,29.73,16,2,16,0.40
2013-5-17,81,69,56,66,60,54,99,74,46,30.06,29.93,10,0,10,0.00
2013-5-18,81,65,50,67,59,50,99,82,55,30.08,29.97,15,1,16,0.00
2013-5-19,80,69,57,68,63,56,98,82,63,30.06,29.91,11,1,11,0.00
2013-5-20,86,72,58,72,65,57,99,81,56,30.00,29.86,9,0,9,0.00
2013-5-21,86,74,60,73,67,60,99,80,57,29.92,29.78,14,1,14,0.00
2013-5-22,86,72,64,71,64,61,96,79,55,29.85,29.73,20,1,20,0.42
2013-5-23,77,66,55,67,62,53,99,91,62,29.84,29.74,20,1,20,0.80
2013-5-24,54,46,38,53,41,34,95,82,63,30.29,29.84,20,4,20,0.02
2013-5-25,62,46,31,46,37,30,98,73,43,30.34,30.21,18,2,18,0.00
2013-5-26,67,50,32,46,40,31,98,71,40,30.30,30.19,14,1,14,0.00
2013-5-27,66,52,37,54,46,36,98,83,51,30.26,30.08,6,0,6,0.01
2013-5-28,81,66,54,71,61,52,98,83,58,30.08,29.96,29,1,29,0.17
2013-5-29,85,73,63,69,63,59,92,71,48,30.06,29.98,21,2,21,0.00
2013-5-30,88,73,57,72,65,56,99,78,52,30.15,30.02,10,0,10,0.00
2013-5-31,88,74,60,72,65,59,99,76,48,30.08,29.93,13,1,13,0.00
2013-6-1,86,76,65,72,67,63,97,77,57,29.97,29.77,18,1,18,0.02
2013-6-2,79,73,65,68,66,63,95,79,59,29.83,29.75,16,2,18,0.01
2013-6-3,69,63,51,64,59,48,97,88,71,30.02,29.81,11,1,12,0.01
2013-6-4,72,57,40,55,48,39,99,76,45,30.15,30.02,9,0,9,0.01
2013-6-5,83,65,45,68,57,44,100,79,54,30.11,29.88,16,1,16,0.00
2013-6-6,71,66,62,68,64,62,98,93,74,29.91,29.71,11,0,12,1.28
2013-6-7,68,64,60,64,62,57,99,94,82,29.82,29.70,10,1,12,0.02
2013-6-8,74,63,57,62,58,54,96,83,63,30.08,29.82,9,0,11,0.00
2013-6-9,85,70,55,68,62,54,99,80,52,30.13,29.96,10,0,10,0.00
2013-6-10,78,69,66,72,66,63,97,90,78,29.98,29.74,14,0,14,0.26
2013-6-11,79,69,64,70,65,62,97,88,65,29.85,29.76,15,2,18,0.00
2013-6-12,84,75,64,74,69,63,97,82,67,29.88,29.69,11,1,11,0.02
2013-6-13,73,67,60,72,64,57,97,91,82,29.75,29.48,18,2,18,0.54
2013-6-14,74,62,52,63,57,51,99,87,58,30.03,29.75,12,1,12,0.08
2013-6-15,79,65,50,61,56,50,99,77,44,30.11,29.98,11,1,11,0.01
2013-6-16,77,68,62,69,64,60,95,88,72,30.00,29.88,20,1,20,0.05
2013-6-17,82,72,64,70,66,62,97,81,55,29.94,29.84,10,1,10,0.00
2013-6-18,76,67,62,70,65,61,99,92,72,29.90,29.79,10,0,10,0.21
2013-6-19,77,67,55,63,57,51,94,74,42,30.11,29.90,10,1,10,0.00
2013-6-20,83,66,49,64,57,48,99,76,46,30.20,30.11,8,0,9,0.00
2013-6-21,86,69,52,70,60,51,100,76,41,30.22,30.11,8,0,8,0.00
2013-6-22,88,72,56,73,66,56,99,81,56,30.17,30.02,9,0,9,0.00
2013-6-23,88,75,62,74,68,61,100,81,54,30.12,30.00,8,0,9,0.00
2013-6-24,88,76,62,74,68,61,100,80,58,30.10,29.95,9,1,10,0.00
2013-6-25,88,75,64,73,68,63,98,81,58,30.01,29.84,21,2,28,0.27
2013-6-26,80,72,65,73,69,64,99,88,73,29.92,29.76,13,1,14,0.56
2013-6-27,74,69,67,71,68,66,99,96,88,29.77,29.61,15,1,15,0.44
2013-6-28,79,70,64,73,67,62,99,92,74,29.62,29.48,18,1,21,0.76
2013-6-29,80,68,58,70,64,57,99,87,60,29.65,29.51,11,1,11,0.09
2013-6-30,84,71,61,72,66,61,100,87,61,29.79,29.65,36,1,36,0.67
2013-7-1,82,72,65,71,68,64,99,89,66,29.90,29.76,7,0,8,0.68
2013-7-2,85,75,68,74,70,67,99,86,57,30.01,29.88,5,0,9,0.38
2013-7-3,86,75,65,74,69,64,99,82,62,30.12,30.01,9,0,11,0.00
2013-7-4,88,76,68,76,70,67,97,82,59,30.18,30.05,6,0,11,0.12
2013-7-5,85,75,66,75,70,65,100,84,63,30.12,30.05,20,1,20,0.00
2013-7-6,90,78,67,74,71,66,99,80,56,30.13,29.97,12,1,13,0.00
2013-7-7,77,73,68,72,69,67,97,89,77,30.06,29.96,13,0,13,0.32
2013-7-8,83,74,65,72,68,63,98,85,64,30.10,30.00,11,1,11,0.00
2013-7-9,84,74,68,77,71,67,99,91,77,30.06,29.92,18,1,18,0.88
2013-7-10,86,74,66,80,71,65,99,91,66,29.99,29.77,23,1,23,0.72
2013-7-11,66,66,65,65,65,64,98,98,98,29.88,29.83,2,0,2,0.00
2013-7-12,76,64,56,68,62,56,99,94,76,30.07,29.94,3,0,11,0.18
2013-7-13,82,72,61,72,68,60,100,87,68,30.19,30.05,3,0,8,0.02
2013-7-14,90,78,67,75,70,66,97,78,53,30.24,30.17,15,1,15,0.00
2013-7-15,90,78,65,77,71,65,100,82,55,30.29,30.18,7,0,7,0.00
2013-7-16,90,76,68,79,72,67,100,90,63,30.27,30.18,15,0,15,0.00
2013-7-17,90,76,70,80,74,70,100,92,66,30.26,30.10,12,0,14,0.04
2013-7-18,92,79,69,80,74,69,100,86,62,30.13,29.97,8,0,8,0.00
2013-7-19,90,77,70,80,73,70,100,89,64,29.99,29.82,1,0,1,0.01
2013-7-20,77,72,68,74,70,68,99,94,89,29.89,29.79,0,0,0,0.47
2013-7-21,84,73,66,75,70,66,100,90,64,29.93,29.85,7,0,7,0.10
2013-7-22,81,72,67,75,70,66,100,93,77,29.90,29.73,15,0,15,0.05
2013-7-23,84,71,64,73,68,64,99,90,64,29.75,29.65,16,1,16,0.42
2013-7-24,72,66,58,66,60,55,99,82,58,29.95,29.71,12,1,12,0.00
2013-7-25,76,63,50,61,55,50,99,79,46,30.06,29.95,10,1,12,0.00
2013-7-26,81,65,49,63,57,49,100,79,49,30.08,29.96,7,0,7,0.00
2013-7-27,73,64,56,70,63,56,99,96,87,29.97,29.82,7,0,7,0.28
2013-7-28,77,67,56,66,61,54,99,83,50,30.01,29.82,17,2,17,0.34
2013-7-29,74,63,49,62,56,49,100,82,55,30.17,30.00,14,2,15,0.00
2013-7-30,78,64,55,65,60,54,100,87,56,30.21,30.11,7,0,8,0.00
2013-7-31,76,66,57,68,63,56,100,90,72,30.13,29.94,6,0,7,0.01
2013-8-1,80,70,63,70,66,62,98,86,60,29.93,29.82,5,1,13,0.04
2013-8-2,79,69,58,64,62,58,99,80,57,29.95,29.87,6,2,19,0.01
2013-8-3,73,68,64,68,65,63,98,92,80,29.95,29.90,2,0,9,0.20
2013-8-4,75,66,56,63,58,55,100,79,55,30.06,29.95,12,1,12,0.01
2013-8-5,75,62,50,63,57,49,100,83,51,30.11,29.99,7,0,7,0.01
2013-8-6,82,68,56,66,60,56,99,79,47,30.01,29.93,8,0,8,0.00
2013-8-7,86,70,59,76,66,58,99,90,66,29.95,29.86,22,0,23,0.53
2013-8-8,83,73,64,76,70,64,100,92,74,29.94,29.87,11,0,11,0.01
2013-8-9,79,73,67,75,71,66,99,96,85,29.97,29.85,12,1,14,1.61
2013-8-10,81,71,63,70,65,61,100,85,57,30.06,29.97,7,0,7,0.01
2013-8-11,84,71,62,73,67,61,100,88,62,30.08,29.96,11,0,12,0.50
2013-8-12,83,73,66,73,68,65,100,88,60,30.02,29.84,7,0,7,0.00
2013-8-13,79,70,59,72,65,52,98,85,63,29.93,29.76,15,2,16,0.42
2013-8-14,67,56,50,58,53,49,98,89,71,30.13,29.93,5,1,13,0.00
2013-8-15,74,60,48,60,53,48,100,82,51,30.19,30.07,9,0,9,0.00
2013-8-16,78,63,49,63,56,48,100,82,50,30.14,30.08,8,0,9,0.01
2013-8-17,76,64,52,64,58,51,100,83,51,30.22,30.14,12,0,12,0.01
2013-8-18,74,67,60,68,64,60,98,92,79,30.18,30.09,6,0,6,0.02
2013-8-19,80,70,62,71,67,61,99,90,64,30.11,30.02,7,0,7,0.08
2013-8-20,82,68,57,70,62,56,100,84,54,30.17,30.07,6,0,6,0.02
2013-8-21,84,69,58,73,65,58,100,88,62,30.16,30.02,13,0,13,0.47
2013-8-22,82,71,65,74,68,64,99,92,71,30.08,29.94,19,1,23,0.13
2013-8-23,79,70,63,70,66,62,99,89,59,30.10,29.93,8,0,8,1.24
2013-8-24,81,66,55,67,60,55,100,85,46,30.27,30.09,0,0,0,0.02
2013-8-25,82,67,54,67,61,54,100,83,54,30.35,30.20,8,0,8,0.00
2013-8-26,84,70,55,70,64,55,100,83,58,30.23,30.00,12,1,13,0.01
2013-8-27,79,73,68,74,70,66,98,92,80,30.01,29.90,11,1,11,0.03
2013-8-28,82,74,70,78,72,69,99,95,83,29.91,29.76,10,1,10,0.16
2013-8-29,84,75,68,74,71,67,99,88,64,29.98,29.86,5,0,6,0.00
2013-8-30,87,74,62,75,69,62,100,86,63,29.97,29.79,13,1,13,0.00
2013-8-31,84,75,67,73,70,66,99,87,65,29.82,29.73,14,1,14,0.00
2013-9-1,82,73,68,76,70,67,98,90,76,29.80,29.72,10,0,11,0.00
2013-9-2,83,71,64,75,68,63,100,91,68,29.82,29.70,17,1,18,0.01
2013-9-3,74,65,54,65,60,53,100,86,59,30.02,29.79,15,2,15,0.01
2013-9-4,77,62,51,63,56,50,100,84,53,30.11,30.01,8,1,9,0.01
2013-9-5,75,63,52,65,58,50,99,84,56,30.18,30.06,13,1,13,0.00
2013-9-6,74,57,43,57,50,42,99,79,37,30.25,30.11,8,0,8,0.01
2013-9-7,78,61,44,62,54,43,100,81,45,30.11,29.94,10,0,10,0.01
2013-9-8,80,69,60,72,64,59,97,87,70,30.01,29.89,8,0,8,0.00
2013-9-9,85,71,56,74,66,56,100,87,65,30.06,29.96,7,0,11,0.00
2013-9-10,88,78,69,78,72,67,97,85,68,30.10,30.01,14,1,14,0.00
2013-9-11,86,75,68,79,72,68,100,91,73,30.11,29.97,21,0,22,0.10
2013-9-12,78,71,63,74,69,62,99,95,83,29.97,29.75,19,1,20,0.26
2013-9-13,64,59,57,62,58,55,100,94,81,29.86,29.77,20,1,24,0.00
2013-9-14,66,54,46,52,48,45,98,82,54,30.16,30.00,3,1,9,0.00
2013-9-15,71,60,41,60,54,41,100,83,60,30.18,30.05,15,1,15,0.01
2013-9-16,69,60,53,59,56,51,98,88,66,30.28,30.03,9,0,9,0.21
2013-9-17,71,56,43,58,50,42,100,84,54,30.37,30.22,13,1,13,0.01
2013-9-18,72,57,42,59,52,41,99,85,55,30.24,30.09,6,0,6,0.01
2013-9-19,78,66,58,66,62,57,100,87,60,30.12,30.00,12,0,12,0.02
2013-9-20,77,67,58,72,65,57,100,93,81,30.01,29.80,12,0,12,0.00
2013-9-21,70,64,56,67,62,56,99,95,87,29.80,29.63,16,1,16,1.06
2013-9-22,62,56,49,56,52,47,100,87,60,30.00,29.76,12,1,12,0.00
2013-9-23,56,51,49,50,48,45,98,90,67,30.13,30.00,7,0,7,0.00
2013-9-24,70,56,38,57,50,37,100,83,56,30.11,29.95,8,0,10,0.01
2013-9-25,76,57,43,62,52,43,100,86,57,29.97,29.84,7,0,7,0.01
2013-9-26,76,58,44,60,51,44,100,82,43,30.05,29.91,8,0,8,0.00
2013-9-27,75,57,42,60,51,41,100,83,48,30.17,30.05,6,0,8,0.01
2013-9-28,74,58,44,61,52,43,100,82,54,30.24,30.13,9,0,9,0.01
2013-9-29,75,60,46,62,54,45,99,84,58,30.13,29.98,8,0,8,0.00
2013-9-30,71,60,50,64,58,50,99,92,73,30.03,29.96,9,0,9,0.00
2013-10-1,76,63,51,66,59,50,100,88,62,30.07,29.98,12,1,15,0.01
2013-10-2,80,64,51,68,60,51,100,88,63,30.09,30.01,11,1,11,0.01
2013-10-3,80,67,57,69,63,56,100,88,65,30.08,29.98,15,0,15,0.05
2013-10-4,82,69,60,71,65,60,100,89,64,30.09,29.99,11,1,12,0.01
2013-10-5,83,70,60,72,66,59,100,87,63,30.06,29.94,11,0,11,0.00
2013-10-6,86,74,64,71,64,60,99,75,46,29.94,29.70,15,1,15,0.00
2013-10-7,72,56,43,62,50,42,97,81,59,30.11,29.65,21,3,23,0.22
2013-10-8,66,50,37,53,44,36,99,82,49,30.30,30.11,13,1,13,0.00
2013-10-9,70,51,35,53,43,34,99,76,35,30.32,30.21,10,0,11,0.01
2013-10-10,68,58,45,59,49,43,97,74,53,30.21,30.05,10,0,10,0.00
2013-10-11,60,56,52,57,54,49,96,92,76,30.07,30.01,9,1,9,0.03
2013-10-12,74,63,53,65,59,52,100,87,71,30.12,30.02,8,0,8,0.00
2013-10-13,72,63,57,64,59,56,98,86,69,30.21,30.11,8,0,8,0.00
2013-10-14,62,59,57,59,58,56,98,95,91,30.26,30.19,7,0,7,0.02
2013-10-15,73,62,53,64,58,53,100,87,66,30.20,29.95,7,0,8,0.00
2013-10-16,65,60,53,63,58,52,98,93,82,29.96,29.85,15,0,15,0.10
2013-10-17,62,56,50,61,54,48,98,94,90,29.90,29.66,23,1,23,0.42
2013-10-18,62,51,40,49,44,39,97,80,51,30.03,29.90,17,2,17,0.00
2013-10-19,55,44,33,50,41,32,99,92,75,29.97,29.77,23,1,23,0.08
2013-10-20,58,46,37,45,39,35,98,80,51,30.06,29.96,19,2,23,0.00
2013-10-21,67,49,31,46,38,30,100,70,34,30.07,29.85,14,1,17,0.00
2013-10-22,55,47,39,48,38,31,94,73,46,29.96,29.82,14,2,14,0.09
2013-10-23,42,40,37,40,38,35,97,92,84,29.96,29.75,15,1,15,0.13
2013-10-24,43,39,34,37,34,31,94,83,68,30.14,29.94,15,3,15,0.00
2013-10-25,39,36,34,32,31,30,85,82,75,30.31,30.28,3,0,3,0.01
2013-10-26,51,41,30,34,30,28,91,68,43,30.29,29.92,23,3,23,0.00
2013-10-27,54,42,30,39,33,28,95,71,45,30.11,29.99,14,2,14,0.00
2013-10-28,32,29,27,30,28,25,96,95,94,30.21,30.10,1,0,1,0.00
2013-10-29,61,48,29,45,39,28,98,72,45,30.39,30.24,6,0,6,0.01
2013-10-30,63,50,41,56,46,38,93,85,70,30.24,30.08,6,0,6,0.00
2013-10-31,70,63,58,60,57,56,97,82,69,30.11,29.44,16,3,18,0.07
2013-11-1,72,59,44,60,50,42,95,73,52,29.68,29.32,47,4,48,0.13
2013-11-2,50,47,45,47,44,41,95,89,83,29.96,29.63,8,1,11,0.02
2013-11-3,50,41,28,42,35,26,95,79,54,30.45,29.96,13,1,13,0.00
2013-11-4,49,36,23,33,28,21,100,74,43,30.55,30.42,7,0,7,0.00
2013-11-5,60,45,33,40,34,30,93,67,39,30.51,30.33,7,0,8,0.00
2013-11-6,74,55,31,57,45,29,97,71,48,30.33,29.91,20,1,20,0.00
2013-11-7,61,47,39,57,41,28,96,80,58,30.14,29.85,21,4,21,0.48
2013-11-8,45,37,25,33,29,24,94,74,54,30.32,30.10,18,3,18,0.00
2013-11-9,58,26,24,35,24,22,98,92,30,30.31,30.00,5,0,18,0.00
2013-11-10,54,43,32,37,32,27,81,63,43,30.28,30.00,29,8,29,0.00
2013-11-11,51,40,26,42,32,24,95,75,39,30.30,30.05,20,1,20,0.04
2013-11-12,40,31,25,38,26,20,95,85,62,30.51,30.08,16,3,17,0.18
2013-11-13,37,28,19,25,22,17,92,76,57,30.57,30.42,15,2,15,0.02
2013-11-14,51,38,26,28,23,21,81,59,33,30.42,30.19,15,1,15,0.00
2013-11-15,57,43,27,41,29,22,83,60,29,30.25,30.13,17,1,18,0.01
2013-11-16,64,52,35,53,46,34,98,81,65,30.24,30.01,11,0,11,0.00
2013-11-17,64,59,53,60,54,42,93,84,55,30.01,29.52,30,2,30,0.42
2013-11-18,58,50,40,44,36,27,74,59,46,30.06,29.65,29,9,30,0.00
2013-11-19,40,36,26,30,27,22,89,71,61,30.40,30.05,16,2,19,0.00
2013-11-20,49,36,22,29,20,14,100,60,25,30.48,30.35,14,2,16,0.00
2013-11-21,59,44,24,44,34,20,91,68,48,30.44,30.22,9,0,9,0.00
2013-11-22,55,51,38,54,48,34,100,92,76,30.22,30.04,21,2,21,0.27
2013-11-23,38,32,20,34,26,14,92,77,56,30.37,30.14,24,6,24,0.00
2013-11-24,24,19,11,18,11,7,91,72,58,30.58,30.37,22,6,22,0.00
2013-11-25,38,26,10,28,13,8,93,63,33,30.56,30.25,16,1,18,0.00
2013-11-26,36,34,32,34,32,27,98,94,71,30.25,29.72,13,1,18,1.18
2013-11-27,33,29,24,32,25,16,100,86,69,30.18,29.73,24,7,24,0.04
2013-11-28,32,25,15,23,19,12,91,77,63,30.46,30.18,15,2,15,0.01
2013-11-29,39,30,21,26,23,18,91,76,55,30.66,30.45,10,0,10,0.02
2013-11-30,44,28,16,29,23,15,100,82,55,30.62,30.24,9,0,9,0.00
2013-12-1,47,37,24,34,30,22,96,78,56,30.24,29.98,12,0,12,0.00
2013-12-2,53,42,33,40,36,30,95,80,60,29.98,29.81,7,0,8,0.00
2013-12-3,57,44,36,44,38,35,100,83,57,29.90,29.83,8,0,8,0.00
2013-12-4,63,47,33,51,42,32,98,85,63,29.99,29.87,9,0,9,0.00
2013-12-5,66,57,42,60,53,40,98,88,73,30.05,29.83,16,1,21,0.59
2013-12-6,42,35,29,41,33,28,100,95,89,30.29,29.98,11,2,13,0.62
2013-12-7,29,27,21,28,24,18,95,88,78,30.60,30.26,11,1,11,0.00
2013-12-8,32,26,18,31,23,16,97,89,84,30.58,30.08,7,1,8,0.00
2013-12-9,39,35,32,38,33,28,99,92,83,30.16,29.99,19,3,19,0.15
2013-12-10,32,28,24,28,22,15,93,77,62,30.32,30.03,23,5,23,0.00
2013-12-11,33,28,20,24,18,15,92,67,55,30.40,30.25,21,4,21,0.01
2013-12-12,24,20,14,16,10,6,88,65,49,30.52,30.31,21,5,21,0.00
2013-12-13,38,28,21,23,16,9,81,61,47,30.31,30.22,18,2,18,0.00
2013-12-14,39,33,27,38,31,22,100,92,80,30.25,29.66,14,0,14,0.34
2013-12-15,41,32,26,41,28,17,99,86,66,30.05,29.64,24,8,25,0.01
2013-12-16,28,25,22,25,22,18,94,86,73,30.19,30.04,19,2,25,0.01
2013-12-17,36,32,27,33,29,24,96,88,77,30.08,29.95,20,3,20,0.04
2013-12-18,31,28,22,26,23,19,98,82,72,30.22,30.07,21,3,21,0.00
2013-12-19,57,42,27,40,30,21,85,62,49,30.15,30.03,22,2,22,0.00
2013-12-20,58,51,34,50,41,30,88,70,48,30.04,29.88,22,1,22,0.02
2013-12-21,64,59,55,60,56,50,97,90,77,29.89,29.60,11,0,11,0.66
2013-12-22,72,61,56,62,56,48,95,84,66,29.94,29.53,34,3,34,0.25
2013-12-23,56,40,31,50,36,23,96,86,72,30.29,29.92,16,4,17,0.07
2013-12-24,31,24,14,25,17,10,95,74,58,30.55,30.24,22,6,26,0.00
2013-12-25,30,21,11,25,16,9,92,81,62,30.55,30.24,7,0,8,0.00
2013-12-26,38,32,27,28,24,20,92,74,51,30.37,30.18,24,4,24,0.01
2013-12-27,46,34,22,28,23,18,91,67,44,30.40,30.29,19,1,19,0.00
2013-12-28,53,41,31,33,28,22,74,59,44,30.30,30.04,14,1,15,0.00
2013-12-29,43,40,36,42,38,28,100,90,65,30.04,29.65,20,2,20,0.63
2013-12-30,40,29,24,38,25,16,94,84,69,30.20,29.85,14,4,18,0.00
2013-12-31,28,26,23,25,21,18,92,81,70,30.35,30.11,28,4,28,0.00
2014-1-1,44,33,26,30,25,20,92,74,51,30.36,30.05,12,1,13,0.00
2014-1-2,31,25,13,29,23,9,100,91,84,30.05,29.67,21,2,21,0.00